sensor_id;sensor_type;location;lat;lon;timestamp;pressure;altitude;pressure_sealevel;temperature;humidity
64668;BME280;51077;42.716;23.344;2023-05-02T00:00:25;95680.94;;;12.58;57.38
64668;BME280;51077;42.716;23.344;2023-05-02T00:02:51;95676.97;;;12.54;57.54
64668;BME280;51077;42.716;23.344;2023-05-02T00:05:16;95683.22;;;12.54;57.54
64668;BME280;51077;42.716;23.344;2023-05-02T00:07:42;95684.00;;;12.49;57.68
64668;BME280;51077;42.716;23.344;2023-05-02T00:10:08;95693.03;;;12.50;57.76
64668;BME280;51077;42.716;23.344;2023-05-02T00:12:33;95688.25;;;12.50;57.87
64668;BME280;51077;42.716;23.344;2023-05-02T00:14:59;95690.72;;;12.54;57.76
64668;BME280;51077;42.716;23.344;2023-05-02T00:17:25;95687.88;;;12.65;57.60
64668;BME280;51077;42.716;23.344;2023-05-02T00:19:50;95694.28;;;12.73;57.22
64668;BME280;51077;42.716;23.344;2023-05-02T00:22:15;95687.47;;;12.80;57.06
64668;BME280;51077;42.716;23.344;2023-05-02T00:24:41;95694.69;;;12.83;56.96
64668;BME280;51077;42.716;23.344;2023-05-02T00:27:06;95689.72;;;12.81;57.46
64668;BME280;51077;42.716;23.344;2023-05-02T00:29:32;95695.75;;;12.80;57.20
64668;BME280;51077;42.716;23.344;2023-05-02T00:31:57;95692.19;;;12.85;57.23
64668;BME280;51077;42.716;23.344;2023-05-02T00:34:27;95686.41;;;12.89;57.13
64668;BME280;51077;42.716;23.344;2023-05-02T00:36:53;95698.09;;;12.95;56.91
64668;BME280;51077;42.716;23.344;2023-05-02T00:39:18;95707.84;;;12.96;56.87
64668;BME280;51077;42.716;23.344;2023-05-02T00:41:43;95712.16;;;12.91;57.03
64668;BME280;51077;42.716;23.344;2023-05-02T00:44:09;95708.66;;;12.91;57.16
64668;BME280;51077;42.716;23.344;2023-05-02T00:46:34;95712.66;;;12.90;57.32
64668;BME280;51077;42.716;23.344;2023-05-02T00:49:00;95719.16;;;12.92;56.98
64668;BME280;51077;42.716;23.344;2023-05-02T00:51:26;95726.38;;;12.95;57.16
64668;BME280;51077;42.716;23.344;2023-05-02T00:53:51;95733.38;;;12.96;56.92
64668;BME280;51077;42.716;23.344;2023-05-02T00:56:17;95720.13;;;12.95;57.22
64668;BME280;51077;42.716;23.344;2023-05-02T00:58:42;95727.88;;;12.96;57.15
64668;BME280;51077;42.716;23.344;2023-05-02T01:11:57;95728.34;;;13.00;56.99
64668;BME280;51077;42.716;23.344;2023-05-02T01:14:28;95721.84;;;12.98;57.14
64668;BME280;51077;42.716;23.344;2023-05-02T01:16:55;95722.16;;;12.94;57.33
64668;BME280;51077;42.716;23.344;2023-05-02T01:19:25;95721.16;;;12.92;57.50
64668;BME280;51077;42.716;23.344;2023-05-02T01:21:55;95728.69;;;12.91;57.56
64668;BME280;51077;42.716;23.344;2023-05-02T01:24:25;95724.44;;;12.90;57.63
64668;BME280;51077;42.716;23.344;2023-05-02T01:27:14;95728.16;;;12.93;57.53
64668;BME280;51077;42.716;23.344;2023-05-02T01:29:43;95712.38;;;12.93;57.63
64668;BME280;51077;42.716;23.344;2023-05-02T01:32:10;95709.63;;;12.93;57.63
64668;BME280;51077;42.716;23.344;2023-05-02T01:34:39;95715.44;;;12.90;57.73
64668;BME280;51077;42.716;23.344;2023-05-02T01:37:07;95709.94;;;12.84;58.10
64668;BME280;51077;42.716;23.344;2023-05-02T01:39:37;95713.47;;;12.85;58.18
64668;BME280;51077;42.716;23.344;2023-05-02T01:42:04;95708.72;;;12.85;58.39
64668;BME280;51077;42.716;23.344;2023-05-02T01:44:31;95704.97;;;12.82;58.35
64668;BME280;51077;42.716;23.344;2023-05-02T01:46:59;95715.78;;;12.80;58.46
64668;BME280;51077;42.716;23.344;2023-05-02T01:49:28;95716.06;;;12.77;58.77
64668;BME280;51077;42.716;23.344;2023-05-02T01:51:58;95717.13;;;12.68;59.08
64668;BME280;51077;42.716;23.344;2023-05-02T01:54:27;95720.09;;;12.70;58.95
64668;BME280;51077;42.716;23.344;2023-05-02T01:56:55;95721.94;;;12.62;59.28
64668;BME280;51077;42.716;23.344;2023-05-02T01:59:22;95726.47;;;12.60;59.44
64668;BME280;51077;42.716;23.344;2023-05-02T02:01:51;95718.03;;;12.52;59.54
64668;BME280;51077;42.716;23.344;2023-05-02T02:04:18;95709.75;;;12.52;59.56
64668;BME280;51077;42.716;23.344;2023-05-02T02:06:47;95714.28;;;12.49;59.62
64668;BME280;51077;42.716;23.344;2023-05-02T02:09:15;95708.53;;;12.47;59.86
64668;BME280;51077;42.716;23.344;2023-05-02T02:11:48;95711.31;;;12.47;59.77
64668;BME280;51077;42.716;23.344;2023-05-02T02:14:21;95702.34;;;12.41;59.97
64668;BME280;51077;42.716;23.344;2023-05-02T02:16:49;95714.59;;;12.40;60.04
64668;BME280;51077;42.716;23.344;2023-05-02T02:19:17;95706.81;;;12.44;60.06
64668;BME280;51077;42.716;23.344;2023-05-02T02:21:46;95713.59;;;12.43;60.00
64668;BME280;51077;42.716;23.344;2023-05-02T02:24:12;95711.31;;;12.47;59.63
64668;BME280;51077;42.716;23.344;2023-05-02T02:26:39;95719.03;;;12.49;59.89
64668;BME280;51077;42.716;23.344;2023-05-02T02:29:05;95714.00;;;12.53;59.86
64668;BME280;51077;42.716;23.344;2023-05-02T02:31:34;95715.78;;;12.50;59.89
64668;BME280;51077;42.716;23.344;2023-05-02T02:34:00;95720.03;;;12.51;59.77
64668;BME280;51077;42.716;23.344;2023-05-02T02:36:37;95713.78;;;12.51;59.83
64668;BME280;51077;42.716;23.344;2023-05-02T02:47:41;95719.88;;;12.38;60.29
64668;BME280;51077;42.716;23.344;2023-05-02T02:50:33;95722.91;;;12.35;60.47
64668;BME280;51077;42.716;23.344;2023-05-02T02:53:08;95727.44;;;12.32;60.58
64668;BME280;51077;42.716;23.344;2023-05-02T02:55:47;95720.22;;;12.29;60.67
64668;BME280;51077;42.716;23.344;2023-05-02T02:58:47;95721.00;;;12.24;60.86
64668;BME280;51077;42.716;23.344;2023-05-02T03:01:20;95729.25;;;12.24;61.00
64668;BME280;51077;42.716;23.344;2023-05-02T03:03:47;95732.22;;;12.26;61.01
64668;BME280;51077;42.716;23.344;2023-05-02T03:06:14;95733.22;;;12.28;60.87
64668;BME280;51077;42.716;23.344;2023-05-02T03:08:42;95740.22;;;12.29;60.67
64668;BME280;51077;42.716;23.344;2023-05-02T03:11:08;95740.97;;;12.30;60.67
64668;BME280;51077;42.716;23.344;2023-05-02T03:13:34;95738.69;;;12.34;60.67
64668;BME280;51077;42.716;23.344;2023-05-02T03:18:31;95746.19;;;12.33;60.64
64668;BME280;51077;42.716;23.344;2023-05-02T03:20:57;95752.97;;;12.32;60.62
64668;BME280;51077;42.716;23.344;2023-05-02T03:23:23;95755.72;;;12.32;60.44
64668;BME280;51077;42.716;23.344;2023-05-02T03:25:49;95760.00;;;12.28;60.95
64668;BME280;51077;42.716;23.344;2023-05-02T03:28:14;95762.97;;;12.30;60.54
64668;BME280;51077;42.716;23.344;2023-05-02T03:30:40;95757.72;;;12.32;61.07
64668;BME280;51077;42.716;23.344;2023-05-02T03:33:06;95760.00;;;12.58;65.87
64668;BME280;51077;42.716;23.344;2023-05-02T03:35:33;95767.97;;;12.97;65.89
64668;BME280;51077;42.716;23.344;2023-05-02T03:37:58;95762.34;;;13.33;65.04
64668;BME280;51077;42.716;23.344;2023-05-02T03:40:23;95765.81;;;13.58;63.66
64668;BME280;51077;42.716;23.344;2023-05-02T03:42:49;95753.09;;;13.74;62.16
64668;BME280;51077;42.716;23.344;2023-05-02T03:45:14;95763.75;;;13.83;61.63
64668;BME280;51077;42.716;23.344;2023-05-02T03:47:40;95765.94;;;13.90;60.71
64668;BME280;51077;42.716;23.344;2023-05-02T03:50:06;95760.88;;;13.94;60.12
64668;BME280;51077;42.716;23.344;2023-05-02T03:52:32;95765.31;;;13.97;59.49
64668;BME280;51077;42.716;23.344;2023-05-02T03:54:59;95771.28;;;14.01;59.12
64668;BME280;51077;42.716;23.344;2023-05-02T03:57:25;95763.25;;;14.03;58.65
64668;BME280;51077;42.716;23.344;2023-05-02T03:59:50;95762.41;;;14.08;58.16
64668;BME280;51077;42.716;23.344;2023-05-02T04:02:15;95767.66;;;14.12;57.69
64668;BME280;51077;42.716;23.344;2023-05-02T04:04:41;95761.28;;;14.17;57.23
64668;BME280;51077;42.716;23.344;2023-05-02T04:07:07;95761.00;;;14.21;57.19
64668;BME280;51077;42.716;23.344;2023-05-02T04:09:34;95765.69;;;14.26;57.03
64668;BME280;51077;42.716;23.344;2023-05-02T04:11:59;95762.09;;;14.31;56.59
64668;BME280;51077;42.716;23.344;2023-05-02T04:14:26;95766.34;;;14.32;56.35
64668;BME280;51077;42.716;23.344;2023-05-02T04:16:51;95771.25;;;14.39;56.17
64668;BME280;51077;42.716;23.344;2023-05-02T04:19:17;95766.19;;;14.43;55.85
64668;BME280;51077;42.716;23.344;2023-05-02T04:21:43;95772.38;;;14.49;55.63
64668;BME280;51077;42.716;23.344;2023-05-02T04:24:09;95769.56;;;14.55;55.43
64668;BME280;51077;42.716;23.344;2023-05-02T04:26:35;95767.97;;;14.60;55.05
64668;BME280;51077;42.716;23.344;2023-05-02T04:29:00;95775.63;;;14.67;54.66
64668;BME280;51077;42.716;23.344;2023-05-02T04:31:26;95774.06;;;14.71;54.38
64668;BME280;51077;42.716;23.344;2023-05-02T04:33:52;95771.97;;;14.77;54.20
64668;BME280;51077;42.716;23.344;2023-05-02T04:36:17;95770.06;;;14.86;53.72
64668;BME280;51077;42.716;23.344;2023-05-02T04:38:45;95772.19;;;14.93;53.48
64668;BME280;51077;42.716;23.344;2023-05-02T04:41:11;95777.84;;;15.00;53.19
64668;BME280;51077;42.716;23.344;2023-05-02T04:43:37;95782.00;;;15.07;52.67
64668;BME280;51077;42.716;23.344;2023-05-02T04:46:02;95778.72;;;15.22;52.42
64668;BME280;51077;42.716;23.344;2023-05-02T04:48:27;95774.69;;;15.36;51.93
64668;BME280;51077;42.716;23.344;2023-05-02T04:50:53;95773.44;;;15.50;51.25
64668;BME280;51077;42.716;23.344;2023-05-02T04:53:21;95779.59;;;15.83;50.69
64668;BME280;51077;42.716;23.344;2023-05-02T04:55:46;95784.56;;;16.11;49.98
64668;BME280;51077;42.716;23.344;2023-05-02T04:58:12;95771.63;;;16.27;49.47
64668;BME280;51077;42.716;23.344;2023-05-02T05:00:37;95785.34;;;16.32;49.24
64668;BME280;51077;42.716;23.344;2023-05-02T05:03:03;95792.91;;;16.32;48.74
64668;BME280;51077;42.716;23.344;2023-05-02T05:05:28;95787.59;;;16.34;48.68
64668;BME280;51077;42.716;23.344;2023-05-02T05:07:53;95785.88;;;16.31;48.39
64668;BME280;51077;42.716;23.344;2023-05-02T05:10:19;95790.34;;;16.34;48.42
64668;BME280;51077;42.716;23.344;2023-05-02T05:12:44;95788.00;;;16.38;48.14
64668;BME280;51077;42.716;23.344;2023-05-02T05:15:10;95782.97;;;16.37;47.67
64668;BME280;51077;42.716;23.344;2023-05-02T05:17:36;95779.88;;;16.40;47.81
64668;BME280;51077;42.716;23.344;2023-05-02T05:20:02;95786.38;;;16.43;47.62
64668;BME280;51077;42.716;23.344;2023-05-02T05:22:27;95787.13;;;16.43;47.45
64668;BME280;51077;42.716;23.344;2023-05-02T05:24:53;95793.41;;;16.44;47.42
64668;BME280;51077;42.716;23.344;2023-05-02T05:27:19;95795.50;;;16.51;46.88
64668;BME280;51077;42.716;23.344;2023-05-02T05:29:45;95799.22;;;16.53;47.02
64668;BME280;51077;42.716;23.344;2023-05-02T05:32:11;95801.66;;;16.57;46.85
64668;BME280;51077;42.716;23.344;2023-05-02T05:34:36;95798.75;;;16.63;46.64
64668;BME280;51077;42.716;23.344;2023-05-02T05:37:02;95802.69;;;16.67;46.35
64668;BME280;51077;42.716;23.344;2023-05-02T05:39:27;95792.00;;;16.71;46.18
64668;BME280;51077;42.716;23.344;2023-05-02T05:41:53;95797.47;;;16.77;45.96
64668;BME280;51077;42.716;23.344;2023-05-02T05:44:19;95799.13;;;16.80;45.60
64668;BME280;51077;42.716;23.344;2023-05-02T05:46:46;95799.53;;;16.84;45.42
64668;BME280;51077;42.716;23.344;2023-05-02T05:49:12;95809.00;;;16.89;45.12
64668;BME280;51077;42.716;23.344;2023-05-02T05:51:37;95799.84;;;16.94;45.06
64668;BME280;51077;42.716;23.344;2023-05-02T05:54:03;95805.56;;;16.96;44.69
64668;BME280;51077;42.716;23.344;2023-05-02T05:56:28;95804.69;;;17.01;44.40
64668;BME280;51077;42.716;23.344;2023-05-02T05:58:53;95819.69;;;17.05;44.45
64668;BME280;51077;42.716;23.344;2023-05-02T06:01:19;95807.72;;;17.11;44.20
64668;BME280;51077;42.716;23.344;2023-05-02T06:03:44;95809.06;;;17.17;44.05
64668;BME280;51077;42.716;23.344;2023-05-02T06:06:10;95808.19;;;17.22;43.62
64668;BME280;51077;42.716;23.344;2023-05-02T06:08:35;95811.75;;;17.30;43.84
64668;BME280;51077;42.716;23.344;2023-05-02T06:11:00;95809.03;;;17.38;43.40
64668;BME280;51077;42.716;23.344;2023-05-02T06:13:26;95820.22;;;17.46;43.30
64668;BME280;51077;42.716;23.344;2023-05-02T06:15:51;95825.38;;;17.49;42.71
64668;BME280;51077;42.716;23.344;2023-05-02T06:18:17;95823.00;;;17.53;42.61
64668;BME280;51077;42.716;23.344;2023-05-02T06:20:42;95825.09;;;17.61;42.29
64668;BME280;51077;42.716;23.344;2023-05-02T06:23:07;95790.72;;;17.64;41.89
64668;BME280;51077;42.716;23.344;2023-05-02T06:25:36;95799.81;;;17.72;41.80
64668;BME280;51077;42.716;23.344;2023-05-02T06:28:01;95792.28;;;17.80;41.49
64668;BME280;51077;42.716;23.344;2023-05-02T06:30:27;95798.44;;;17.86;40.93
64668;BME280;51077;42.716;23.344;2023-05-02T06:32:52;95792.38;;;17.95;40.81
64668;BME280;51077;42.716;23.344;2023-05-02T06:35:17;95798.72;;;18.03;40.57
64668;BME280;51077;42.716;23.344;2023-05-02T06:37:43;95795.41;;;18.13;40.08
64668;BME280;51077;42.716;23.344;2023-05-02T06:40:08;95812.69;;;18.26;39.94
64668;BME280;51077;42.716;23.344;2023-05-02T06:42:34;95808.81;;;18.37;39.51
64668;BME280;51077;42.716;23.344;2023-05-02T06:44:59;95801.44;;;18.47;39.17
64668;BME280;51077;42.716;23.344;2023-05-02T06:47:25;95796.31;;;18.59;38.84
64668;BME280;51077;42.716;23.344;2023-05-02T06:49:51;95782.44;;;18.74;38.41
64668;BME280;51077;42.716;23.344;2023-05-02T06:52:17;95782.09;;;18.86;37.79
64668;BME280;51077;42.716;23.344;2023-05-02T06:54:43;95774.66;;;18.96;37.71
64668;BME280;51077;42.716;23.344;2023-05-02T06:57:08;95787.47;;;19.06;37.30
64668;BME280;51077;42.716;23.344;2023-05-02T06:59:35;95787.66;;;19.16;37.13
64668;BME280;51077;42.716;23.344;2023-05-02T07:02:00;95782.44;;;19.28;36.84
64668;BME280;51077;42.716;23.344;2023-05-02T07:04:26;95797.09;;;19.36;36.47
64668;BME280;51077;42.716;23.344;2023-05-02T07:06:51;95789.84;;;19.48;36.29
64668;BME280;51077;42.716;23.344;2023-05-02T07:09:17;95803.94;;;19.58;35.91
64668;BME280;51077;42.716;23.344;2023-05-02T07:11:42;95789.09;;;19.71;35.66
64668;BME280;51077;42.716;23.344;2023-05-02T07:14:08;95785.91;;;19.82;35.30
64668;BME280;51077;42.716;23.344;2023-05-02T07:16:33;95785.50;;;19.93;35.14
64668;BME280;51077;42.716;23.344;2023-05-02T07:18:59;95784.53;;;20.06;34.96
64668;BME280;51077;42.716;23.344;2023-05-02T07:21:25;95778.53;;;20.17;34.65
64668;BME280;51077;42.716;23.344;2023-05-02T07:23:51;95771.41;;;20.31;34.43
64668;BME280;51077;42.716;23.344;2023-05-02T07:26:16;95780.25;;;20.45;34.38
64668;BME280;51077;42.716;23.344;2023-05-02T07:28:43;95801.94;;;20.62;34.03
64668;BME280;51077;42.716;23.344;2023-05-02T07:31:08;95782.34;;;20.77;33.83
64668;BME280;51077;42.716;23.344;2023-05-02T07:33:33;95786.47;;;20.94;33.38
64668;BME280;51077;42.716;23.344;2023-05-02T07:36:00;95794.00;;;21.08;33.25
64668;BME280;51077;42.716;23.344;2023-05-02T07:38:26;95806.34;;;21.23;32.79
64668;BME280;51077;42.716;23.344;2023-05-02T07:40:51;95799.19;;;21.37;32.64
64668;BME280;51077;42.716;23.344;2023-05-02T07:43:17;95802.44;;;21.51;32.27
64668;BME280;51077;42.716;23.344;2023-05-02T07:45:42;95784.78;;;21.66;31.92
64668;BME280;51077;42.716;23.344;2023-05-02T07:48:08;95785.19;;;21.79;31.56
64668;BME280;51077;42.716;23.344;2023-05-02T07:50:33;95793.81;;;21.91;31.37
64668;BME280;51077;42.716;23.344;2023-05-02T07:52:58;95798.91;;;22.02;31.30
64668;BME280;51077;42.716;23.344;2023-05-02T07:55:24;95798.03;;;22.17;31.03
64668;BME280;51077;42.716;23.344;2023-05-02T07:57:53;95802.38;;;22.28;30.62
64668;BME280;51077;42.716;23.344;2023-05-02T08:00:18;95781.78;;;22.33;30.40
64668;BME280;51077;42.716;23.344;2023-05-02T08:02:44;95796.41;;;22.41;30.13
64668;BME280;51077;42.716;23.344;2023-05-02T08:05:10;95786.59;;;22.50;29.82
64668;BME280;51077;42.716;23.344;2023-05-02T08:07:36;95779.91;;;22.63;29.78
64668;BME280;51077;42.716;23.344;2023-05-02T08:10:01;95772.88;;;22.71;29.68
64668;BME280;51077;42.716;23.344;2023-05-02T08:12:26;95793.41;;;22.83;29.54
64668;BME280;51077;42.716;23.344;2023-05-02T08:14:52;95800.41;;;22.92;29.26
64668;BME280;51077;42.716;23.344;2023-05-02T08:17:18;95811.94;;;23.06;29.08
64668;BME280;51077;42.716;23.344;2023-05-02T08:19:43;95805.66;;;23.15;29.01
64668;BME280;51077;42.716;23.344;2023-05-02T08:22:08;95792.88;;;23.31;28.79
64668;BME280;51077;42.716;23.344;2023-05-02T08:24:35;95784.81;;;23.45;28.74
64668;BME280;51077;42.716;23.344;2023-05-02T08:27:00;95789.56;;;23.62;28.63
64668;BME280;51077;42.716;23.344;2023-05-02T08:29:28;95802.31;;;23.73;28.36
64668;BME280;51077;42.716;23.344;2023-05-02T08:31:54;95775.44;;;23.89;28.16
64668;BME280;51077;42.716;23.344;2023-05-02T08:34:19;95786.38;;;24.04;27.96
64668;BME280;51077;42.716;23.344;2023-05-02T08:36:45;95784.28;;;24.24;27.72
64668;BME280;51077;42.716;23.344;2023-05-02T08:39:11;95793.28;;;24.42;27.20
64668;BME280;51077;42.716;23.344;2023-05-02T08:41:37;95803.19;;;24.53;26.99
64668;BME280;51077;42.716;23.344;2023-05-02T08:44:02;95794.72;;;24.63;26.85
64668;BME280;51077;42.716;23.344;2023-05-02T08:46:34;95788.63;;;24.76;27.03
64668;BME280;51077;42.716;23.344;2023-05-02T08:49:00;95785.63;;;24.93;26.58
64668;BME280;51077;42.716;23.344;2023-05-02T08:51:26;95785.44;;;25.11;26.41
64668;BME280;51077;42.716;23.344;2023-05-02T08:53:53;95784.63;;;25.29;26.09
64668;BME280;51077;42.716;23.344;2023-05-02T08:56:19;95781.47;;;25.35;26.03
64668;BME280;51077;42.716;23.344;2023-05-02T08:58:45;95783.63;;;25.46;25.86
64668;BME280;51077;42.716;23.344;2023-05-02T09:01:15;95784.44;;;25.58;25.60
64668;BME280;51077;42.716;23.344;2023-05-02T09:03:45;95776.53;;;25.67;25.76
64668;BME280;51077;42.716;23.344;2023-05-02T09:06:13;95790.72;;;25.78;25.31
64668;BME280;51077;42.716;23.344;2023-05-02T09:08:41;95762.25;;;25.84;25.27
64668;BME280;51077;42.716;23.344;2023-05-02T09:11:08;95754.00;;;25.98;25.18
64668;BME280;51077;42.716;23.344;2023-05-02T09:13:38;95756.34;;;26.01;25.15
64668;BME280;51077;42.716;23.344;2023-05-02T09:16:14;95752.97;;;26.15;25.04
64668;BME280;51077;42.716;23.344;2023-05-02T09:18:44;95741.38;;;26.32;24.88
64668;BME280;51077;42.716;23.344;2023-05-02T09:21:17;95760.53;;;26.45;24.78
64668;BME280;51077;42.716;23.344;2023-05-02T09:23:54;95766.00;;;26.65;24.24
64668;BME280;51077;42.716;23.344;2023-05-02T09:26:30;95757.44;;;26.74;23.91
64668;BME280;51077;42.716;23.344;2023-05-02T09:28:58;95752.66;;;26.89;23.72
64668;BME280;51077;42.716;23.344;2023-05-02T09:31:25;95770.94;;;27.11;23.82
64668;BME280;51077;42.716;23.344;2023-05-02T09:33:51;95754.91;;;27.25;23.40
64668;BME280;51077;42.716;23.344;2023-05-02T09:36:18;95753.50;;;27.38;23.34
64668;BME280;51077;42.716;23.344;2023-05-02T09:38:46;95762.84;;;27.52;23.00
64668;BME280;51077;42.716;23.344;2023-05-02T09:41:12;95751.28;;;27.60;22.69
64668;BME280;51077;42.716;23.344;2023-05-02T09:43:38;95745.03;;;27.73;22.66
64668;BME280;51077;42.716;23.344;2023-05-02T09:46:09;95740.31;;;27.90;22.75
64668;BME280;51077;42.716;23.344;2023-05-02T09:48:51;95739.13;;;28.06;22.25
64668;BME280;51077;42.716;23.344;2023-05-02T09:51:17;95746.59;;;28.14;22.08
64668;BME280;51077;42.716;23.344;2023-05-02T09:53:43;95751.00;;;28.17;21.99
64668;BME280;51077;42.716;23.344;2023-05-02T09:56:09;95726.25;;;28.29;21.68
64668;BME280;51077;42.716;23.344;2023-05-02T09:58:35;95735.66;;;28.45;21.46
64668;BME280;51077;42.716;23.344;2023-05-02T10:01:01;95728.44;;;28.42;21.31
64668;BME280;51077;42.716;23.344;2023-05-02T10:03:27;95717.25;;;28.44;21.30
64668;BME280;51077;42.716;23.344;2023-05-02T10:05:54;95735.25;;;28.51;21.44
64668;BME280;51077;42.716;23.344;2023-05-02T10:08:21;95737.09;;;28.72;21.17
64668;BME280;51077;42.716;23.344;2023-05-02T10:10:59;95726.66;;;28.88;20.97
64668;BME280;51077;42.716;23.344;2023-05-02T10:13:25;95728.47;;;28.95;20.68
64668;BME280;51077;42.716;23.344;2023-05-02T10:16:03;95712.78;;;29.06;20.51
64668;BME280;51077;42.716;23.344;2023-05-02T10:18:47;95720.44;;;29.31;20.47
64668;BME280;51077;42.716;23.344;2023-05-02T10:21:22;95716.34;;;29.48;20.37
64668;BME280;51077;42.716;23.344;2023-05-02T10:23:49;95718.53;;;29.49;20.63
64668;BME280;51077;42.716;23.344;2023-05-02T10:26:17;95706.47;;;29.49;20.28
64668;BME280;51077;42.716;23.344;2023-05-02T10:28:43;95700.19;;;29.64;20.09
64668;BME280;51077;42.716;23.344;2023-05-02T10:31:09;95704.75;;;29.85;19.79
64668;BME280;51077;42.716;23.344;2023-05-02T10:33:37;95686.19;;;29.82;19.89
64668;BME280;51077;42.716;23.344;2023-05-02T10:36:03;95693.38;;;29.99;19.88
64668;BME280;51077;42.716;23.344;2023-05-02T10:38:29;95700.88;;;30.22;19.32
64668;BME280;51077;42.716;23.344;2023-05-02T10:40:58;95693.31;;;30.26;19.13
64668;BME280;51077;42.716;23.344;2023-05-02T10:43:31;95695.50;;;30.28;19.17
64668;BME280;51077;42.716;23.344;2023-05-02T10:45:58;95691.75;;;30.23;19.31
64668;BME280;51077;42.716;23.344;2023-05-02T10:48:25;95676.66;;;30.19;19.72
64668;BME280;51077;42.716;23.344;2023-05-02T10:50:55;95682.44;;;30.37;19.24
64668;BME280;51077;42.716;23.344;2023-05-02T10:58:35;95674.47;;;30.17;19.68
64668;BME280;51077;42.716;23.344;2023-05-02T11:04:01;95681.59;;;30.34;19.17
64668;BME280;51077;42.716;23.344;2023-05-02T11:06:28;95676.06;;;30.36;19.59
64668;BME280;51077;42.716;23.344;2023-05-02T11:11:44;95668.19;;;30.35;19.29
64668;BME280;51077;42.716;23.344;2023-05-02T11:19:22;95658.13;;;30.47;19.15
64668;BME280;51077;42.716;23.344;2023-05-02T11:21:47;95667.38;;;30.48;19.40
64668;BME280;51077;42.716;23.344;2023-05-02T11:24:41;95659.69;;;30.50;19.42
64668;BME280;51077;42.716;23.344;2023-05-02T11:30:03;95659.00;;;30.04;19.84
64668;BME280;51077;42.716;23.344;2023-05-02T11:35:26;95661.09;;;30.04;19.48
64668;BME280;51077;42.716;23.344;2023-05-02T11:37:58;95649.28;;;29.94;19.45
64668;BME280;51077;42.716;23.344;2023-05-02T11:40:24;95649.25;;;29.78;19.75
64668;BME280;51077;42.716;23.344;2023-05-02T11:42:50;95653.91;;;29.87;19.63
64668;BME280;51077;42.716;23.344;2023-05-02T11:45:16;95652.09;;;29.94;19.36
64668;BME280;51077;42.716;23.344;2023-05-02T11:47:43;95623.53;;;30.03;19.43
64668;BME280;51077;42.716;23.344;2023-05-02T11:50:11;95625.44;;;29.99;19.48
64668;BME280;51077;42.716;23.344;2023-05-02T11:52:37;95623.53;;;30.03;19.47
64668;BME280;51077;42.716;23.344;2023-05-02T11:55:11;95635.00;;;30.21;19.45
64668;BME280;51077;42.716;23.344;2023-05-02T11:57:38;95633.34;;;30.16;19.50
64668;BME280;51077;42.716;23.344;2023-05-02T12:00:04;95622.97;;;30.37;18.87
64668;BME280;51077;42.716;23.344;2023-05-02T12:02:36;95620.13;;;30.37;19.12
64668;BME280;51077;42.716;23.344;2023-05-02T12:05:03;95615.28;;;30.55;18.89
64668;BME280;51077;42.716;23.344;2023-05-02T12:07:35;95625.91;;;30.54;19.09
64668;BME280;51077;42.716;23.344;2023-05-02T12:10:02;95606.53;;;30.49;19.02
64668;BME280;51077;42.716;23.344;2023-05-02T12:12:28;95609.00;;;30.41;18.84
64668;BME280;51077;42.716;23.344;2023-05-02T12:14:54;95608.72;;;30.35;19.28
64668;BME280;51077;42.716;23.344;2023-05-02T12:17:19;95600.66;;;30.29;19.40
64668;BME280;51077;42.716;23.344;2023-05-02T12:19:46;95590.53;;;30.24;19.22
64668;BME280;51077;42.716;23.344;2023-05-02T12:22:13;95613.66;;;30.18;19.21
64668;BME280;51077;42.716;23.344;2023-05-02T12:24:38;95605.53;;;30.26;19.42
64668;BME280;51077;42.716;23.344;2023-05-02T12:27:12;95595.41;;;30.08;19.34
64668;BME280;51077;42.716;23.344;2023-05-02T12:29:45;95604.31;;;30.16;19.06
64668;BME280;51077;42.716;23.344;2023-05-02T12:32:12;95591.06;;;30.04;19.12
64668;BME280;51077;42.716;23.344;2023-05-02T12:34:38;95582.00;;;29.92;19.28
64668;BME280;51077;42.716;23.344;2023-05-02T12:37:05;95583.97;;;29.90;19.16
64668;BME280;51077;42.716;23.344;2023-05-02T12:39:39;95568.00;;;29.80;18.86
64668;BME280;51077;42.716;23.344;2023-05-02T12:42:11;95576.28;;;29.61;19.16
64668;BME280;51077;42.716;23.344;2023-05-02T12:44:38;95567.06;;;29.76;19.35
64668;BME280;51077;42.716;23.344;2023-05-02T12:47:04;95563.47;;;29.60;19.30
64668;BME280;51077;42.716;23.344;2023-05-02T12:49:31;95575.13;;;29.82;18.80
64668;BME280;51077;42.716;23.344;2023-05-02T12:51:56;95569.66;;;29.86;18.60
64668;BME280;51077;42.716;23.344;2023-05-02T12:54:22;95573.78;;;29.83;18.91
64668;BME280;51077;42.716;23.344;2023-05-02T12:56:48;95567.19;;;29.78;18.62
64668;BME280;51077;42.716;23.344;2023-05-02T12:59:30;95557.88;;;29.75;18.40
64668;BME280;51077;42.716;23.344;2023-05-02T13:01:56;95555.69;;;29.74;18.69
64668;BME280;51077;42.716;23.344;2023-05-02T13:04:37;95543.25;;;29.51;18.58
64668;BME280;51077;42.716;23.344;2023-05-02T13:07:04;95551.19;;;29.39;18.66
64668;BME280;51077;42.716;23.344;2023-05-02T13:09:29;95553.47;;;29.13;19.08
64668;BME280;51077;42.716;23.344;2023-05-02T13:11:55;95548.34;;;29.10;19.14
64668;BME280;51077;42.716;23.344;2023-05-02T13:14:21;95560.25;;;28.94;19.12
64668;BME280;51077;42.716;23.344;2023-05-02T13:16:48;95552.97;;;28.75;19.11
64668;BME280;51077;42.716;23.344;2023-05-02T13:19:13;95567.50;;;28.42;19.45
64668;BME280;51077;42.716;23.344;2023-05-02T13:21:39;95575.59;;;28.09;19.68
64668;BME280;51077;42.716;23.344;2023-05-02T13:24:05;95546.97;;;27.75;20.13
64668;BME280;51077;42.716;23.344;2023-05-02T13:26:30;95548.59;;;27.41;20.51
64668;BME280;51077;42.716;23.344;2023-05-02T13:28:56;95550.91;;;27.19;20.75
64668;BME280;51077;42.716;23.344;2023-05-02T13:31:21;95568.34;;;26.92;20.91
64668;BME280;51077;42.716;23.344;2023-05-02T13:33:47;95545.03;;;26.66;21.30